DLH61B EDDF-UBBB
Flight info
| Callsign | DLH61B |
|---|---|
| Flight time | N/A |
| Altitude | 35000 |
| Route | CINDY8S/18 CINDY Z74 HAREM DCT ASLEP DCT TAKUT L603 BESNI L605 MIQ DCT ALUTU DCT BIBAG L605 ESEGA DCT STEIN DCT TEGRI DCT DINRO N743 UDROS UM859 KARDE UN644 ROLIN N644 LAGAS M747 SUBUT T923 ERLEV |
| Aircraft | A321/M-SDE3FGHIRWY/LB1 |
Departure
| Time | N/A |
|---|---|
| Airport | Frankfurt Main Airport (EDDF) |
Arrival
| Time | 2025-09-09 19:26 |
|---|---|
| Airport | Heydar Aliyev International Airport (UBBB) |
| Time | Latitude | Longitude | Altitude | Speed | Heading |
|---|---|---|---|---|---|
| 2025-09-09 17:25 | 42.74526 | 30.60301 | 35076 ft | 496 kts | 109° |
| 2025-09-09 17:27 | 42.71043 | 30.87762 | 35077 ft | 492 kts | 95° |
| 2025-09-09 17:29 | 42.66718 | 31.29129 | 35077 ft | 492 kts | 95° |
| 2025-09-09 17:31 | 42.63247 | 31.61316 | 35078 ft | 492 kts | 95° |
| 2025-09-09 17:33 | 42.59469 | 31.95367 | 35073 ft | 492 kts | 96° |
| 2025-09-09 17:35 | 42.55840 | 32.27436 | 35073 ft | 491 kts | 96° |
| 2025-09-09 17:37 | 42.51135 | 32.67567 | 35070 ft | 490 kts | 96° |
| 2025-09-09 17:39 | 42.47305 | 32.99411 | 35070 ft | 488 kts | 97° |
| 2025-09-09 17:41 | 42.42998 | 33.34227 | 35066 ft | 487 kts | 97° |
| 2025-09-09 17:43 | 42.38429 | 33.70257 | 35059 ft | 484 kts | 98° |
| 2025-09-09 17:45 | 42.33789 | 34.06030 | 35058 ft | 481 kts | 99° |
| 2025-09-09 17:47 | 42.29069 | 34.41435 | 35057 ft | 478 kts | 100° |
| 2025-09-09 17:49 | 42.23874 | 34.79554 | 35047 ft | 476 kts | 101° |
| 2025-09-09 17:51 | 42.19579 | 35.10248 | 35047 ft | 475 kts | 101° |
| 2025-09-09 17:53 | 42.14595 | 35.45061 | 35052 ft | 472 kts | 102° |
| 2025-09-09 17:55 | 42.09541 | 35.79718 | 35049 ft | 471 kts | 102° |
| 2025-09-09 17:57 | 42.04396 | 36.14231 | 35043 ft | 470 kts | 103° |
| 2025-09-09 17:59 | 41.99152 | 36.48594 | 35038 ft | 470 kts | 103° |
| 2025-09-09 18:01 | 41.93803 | 36.82965 | 35037 ft | 470 kts | 103° |
| 2025-09-09 18:03 | 41.90226 | 37.16269 | 35039 ft | 472 kts | 92° |
| 2025-09-09 18:05 | 41.89673 | 37.51490 | 35041 ft | 473 kts | 93° |
| 2025-09-09 18:07 | 41.88999 | 37.86771 | 35036 ft | 473 kts | 93° |
| 2025-09-09 18:09 | 41.88121 | 38.26453 | 35022 ft | 474 kts | 94° |
| 2025-09-09 18:11 | 41.87335 | 38.57464 | 35014 ft | 476 kts | 95° |
| 2025-09-09 18:13 | 41.86334 | 38.93079 | 35010 ft | 479 kts | 95° |
| 2025-09-09 18:15 | 41.85217 | 39.28889 | 35004 ft | 482 kts | 96° |
| 2025-09-09 18:17 | 41.83986 | 39.64954 | 35004 ft | 486 kts | 97° |
| 2025-09-09 18:18 | 41.82798 | 39.96679 | 34999 ft | 490 kts | 98° |
| 2025-09-09 18:21 | 41.80934 | 40.42467 | 34999 ft | 494 kts | 98° |
| 2025-09-09 18:23 | 41.79496 | 40.74720 | 35006 ft | 496 kts | 99° |
| 2025-09-09 18:25 | 41.77620 | 41.11690 | 35011 ft | 499 kts | 100° |
| 2025-09-09 18:27 | 41.75640 | 41.48904 | 35045 ft | 502 kts | 100° |
| 2025-09-09 18:29 | 41.73519 | 41.86307 | 35032 ft | 507 kts | 101° |
| 2025-09-09 18:31 | 41.71233 | 42.24175 | 35046 ft | 513 kts | 102° |
| 2025-09-09 18:33 | 41.68808 | 42.62428 | 35067 ft | 517 kts | 102° |
| 2025-09-09 18:35 | 41.66349 | 42.99234 | 35099 ft | 520 kts | 103° |
| 2025-09-09 18:37 | 41.63638 | 43.37743 | 35105 ft | 522 kts | 103° |
| 2025-09-09 18:39 | 41.60799 | 43.76442 | 35101 ft | 524 kts | 103° |
| 2025-09-09 18:41 | 41.57817 | 44.15248 | 35090 ft | 526 kts | 104° |
| 2025-09-09 18:43 | 41.50109 | 44.51761 | 35048 ft | 510 kts | 118° |
| 2025-09-09 18:45 | 41.41093 | 44.87708 | 35013 ft | 512 kts | 118° |
| 2025-09-09 18:47 | 41.31919 | 45.23698 | 34982 ft | 514 kts | 118° |
| 2025-09-09 18:49 | 41.21427 | 45.64206 | 34963 ft | 517 kts | 118° |
| 2025-09-09 18:50 | 41.14293 | 45.91315 | 34961 ft | 519 kts | 118° |
| 2025-09-09 18:53 | 41.02653 | 46.34871 | 34966 ft | 522 kts | 118° |
| 2025-09-09 18:54 | 40.95383 | 46.62014 | 34954 ft | 522 kts | 118° |
| 2025-09-09 18:57 | 40.88303 | 47.04680 | 34948 ft | 540 kts | 102° |
| 2025-09-09 18:58 | 40.85653 | 47.39258 | 34998 ft | 537 kts | 106° |
| 2025-09-09 19:01 | 40.77508 | 47.81809 | 35011 ft | 532 kts | 111° |
| 2025-09-09 19:03 | 40.70073 | 48.19537 | 34508 ft | 530 kts | 111° |
| 2025-09-09 19:05 | 40.63031 | 48.54569 | 27206 ft | 534 kts | 109° |
| 2025-09-09 19:05 | 40.61104 | 48.64051 | 24901 ft | 532 kts | 108° |
| 2025-09-09 19:06 | 40.59254 | 48.73162 | 22601 ft | 506 kts | 108° |
| 2025-09-09 19:06 | 40.57448 | 48.81978 | 21239 ft | 488 kts | 108° |
| 2025-09-09 19:06 | 40.56572 | 48.86204 | 20498 ft | 481 kts | 108° |
| 2025-09-09 19:07 | 40.54844 | 48.94571 | 19049 ft | 469 kts | 108° |
| 2025-09-09 19:07 | 40.53328 | 49.01922 | 17685 ft | 459 kts | 107° |
| 2025-09-09 19:08 | 40.50060 | 49.17628 | 14748 ft | 435 kts | 107° |
| 2025-09-09 19:09 | 40.49261 | 49.21453 | 14066 ft | 430 kts | 106° |
| 2025-09-09 19:09 | 40.47850 | 49.28195 | 12821 ft | 419 kts | 106° |
| 2025-09-09 19:10 | 40.46170 | 49.35182 | 11764 ft | 396 kts | 120° |
| 2025-09-09 19:10 | 40.42554 | 49.40583 | 10275 ft | 386 kts | 136° |
| 2025-09-09 19:11 | 40.39296 | 49.44807 | 10057 ft | 350 kts | 136° |
| 2025-09-09 19:11 | 40.37623 | 49.46977 | 9913 ft | 324 kts | 136° |
| 2025-09-09 19:11 | 40.34629 | 49.50866 | 9288 ft | 292 kts | 136° |
| 2025-09-09 19:12 | 40.31775 | 49.54557 | 8584 ft | 285 kts | 136° |
| 2025-09-09 19:13 | 40.27760 | 49.59716 | 8064 ft | 259 kts | 136° |
| 2025-09-09 19:13 | 40.25195 | 49.62989 | 7439 ft | 255 kts | 136° |
| 2025-09-09 19:14 | 40.22660 | 49.66201 | 6836 ft | 252 kts | 136° |
| 2025-09-09 19:14 | 40.21409 | 49.67770 | 6380 ft | 247 kts | 136° |
| 2025-09-09 19:15 | 40.17723 | 49.72339 | 4925 ft | 242 kts | 134° |
| 2025-09-09 19:15 | 40.16728 | 49.75901 | 4309 ft | 241 kts | 83° |
| 2025-09-09 19:16 | 40.17469 | 49.80170 | 3642 ft | 237 kts | 76° |
| 2025-09-09 19:16 | 40.18618 | 49.86086 | 3008 ft | 220 kts | 76° |
| 2025-09-09 19:17 | 40.19339 | 49.89912 | 2564 ft | 215 kts | 76° |
| 2025-09-09 19:17 | 40.19700 | 49.91827 | 2456 ft | 218 kts | 76° |
| 2025-09-09 19:18 | 40.20736 | 49.97335 | 2183 ft | 202 kts | 77° |
| 2025-09-09 19:18 | 40.21055 | 49.99043 | 2104 ft | 184 kts | 77° |
| 2025-09-09 19:19 | 40.21639 | 50.02165 | 2006 ft | 173 kts | 76° |
| 2025-09-09 19:19 | 40.22206 | 50.05228 | 1990 ft | 173 kts | 72° |
| 2025-09-09 19:20 | 40.23737 | 50.07561 | 1996 ft | 175 kts | 30° |
| 2025-09-09 19:20 | 40.27263 | 50.08859 | 2062 ft | 177 kts | 11° |
| 2025-09-09 19:21 | 40.29729 | 50.08896 | 2039 ft | 180 kts | 351° |
| 2025-09-09 19:21 | 40.30954 | 50.08552 | 2040 ft | 180 kts | 350° |
| 2025-09-09 19:22 | 40.34207 | 50.07643 | 2009 ft | 174 kts | 349° |
| 2025-09-09 19:22 | 40.35329 | 50.07299 | 1960 ft | 157 kts | 350° |
| 2025-09-09 19:23 | 40.37137 | 50.06773 | 1760 ft | 148 kts | 348° |
| 2025-09-09 19:23 | 40.39110 | 50.06152 | 1248 ft | 144 kts | 350° |
| 2025-09-09 19:24 | 40.41019 | 50.05586 | 899 ft | 142 kts | 348° |
| 2025-09-09 19:24 | 40.43823 | 50.04700 | 403 ft | 137 kts | 346° |
| 2025-09-09 19:25 | 40.44753 | 50.04406 | 223 ft | 136 kts | 346° |
| 2025-09-09 19:25 | 40.47124 | 50.03663 | 13 ft | 62 kts | 347° |
| 2025-09-09 19:26 | 40.47433 | 50.03567 | 13 ft | 35 kts | 347° |
| 2025-09-09 19:26 | 40.47671 | 50.03543 | 11 ft | 15 kts | 59° |
| 2025-09-09 19:27 | 40.47535 | 50.03672 | 13 ft | 16 kts | 161° |
| 2025-09-09 19:27 | 40.47354 | 50.03760 | 15 ft | 18 kts | 159° |
| 2025-09-09 19:28 | 40.47103 | 50.03885 | 14 ft | 21 kts | 159° |
| 2025-09-09 19:28 | 40.46859 | 50.04149 | 14 ft | 16 kts | 77° |
| 2025-09-09 19:29 | 40.46905 | 50.04469 | 15 ft | 19 kts | 85° |
| 2025-09-09 19:29 | 40.46915 | 50.04850 | 15 ft | 21 kts | 88° |
| 2025-09-09 19:30 | 40.46917 | 50.04982 | 15 ft | 11 kts | 96° |
| 2025-09-09 19:30 | 40.46815 | 50.05047 | 15 ft | 10 kts | 181° |
| 2025-09-09 19:31 | 40.46738 | 50.05083 | 15 ft | 4 kts | 146° |
| 2025-09-09 19:31 | 40.46718 | 50.05102 | 15 ft | 0 kts | 144° |